createdAt,value
2022-10-22T00:04:52.674Z,15.45
2022-10-22T00:09:55.658Z,15.16
2022-10-22T00:14:58.804Z,15.39
2022-10-22T00:20:01.565Z,14.95
2022-10-22T00:25:04.741Z,14.98
2022-10-22T00:30:08.137Z,15.40
2022-10-22T00:35:11.054Z,15.37
2022-10-22T00:40:13.832Z,15.53
2022-10-22T00:45:21.140Z,15.67
2022-10-22T00:50:31.108Z,15.45
2022-10-22T00:55:34.731Z,14.92
2022-10-22T01:00:37.583Z,15.19
2022-10-22T01:05:47.751Z,15.74
2022-10-22T01:11:05.766Z,15.18
2022-10-22T01:16:55.257Z,15.78
2022-10-22T01:22:26.652Z,15.81
2022-10-22T01:28:00.102Z,15.76
2022-10-22T01:33:07.842Z,15.50
2022-10-22T01:38:16.147Z,15.36
2022-10-22T01:43:19.347Z,15.19
2022-10-22T01:48:46.288Z,15.33
2022-10-22T01:54:20.088Z,15.52
2022-10-22T02:00:07.172Z,15.43
2022-10-22T02:05:18.053Z,15.27
2022-10-22T02:10:23.043Z,14.56
2022-10-22T02:15:28.507Z,15.08
2022-10-22T02:20:34.778Z,14.60
2022-10-22T02:25:41.587Z,14.76
2022-10-22T02:30:49.739Z,15.05
2022-10-22T02:35:54.344Z,15.47
2022-10-22T02:40:57.423Z,15.61
2022-10-22T02:46:00.879Z,15.82
2022-10-22T02:51:04.191Z,15.97
2022-10-22T02:56:07.048Z,16.01
2022-10-22T03:01:12.427Z,16.13
2022-10-22T03:06:18.943Z,16.16
2022-10-22T03:11:21.886Z,15.88
2022-10-22T03:16:24.616Z,16.03
2022-10-22T03:21:43.126Z,16.37
2022-10-22T03:26:48.019Z,16.26
2022-10-22T03:31:50.750Z,15.18
2022-10-22T03:36:54.619Z,16.04
2022-10-22T03:41:58.314Z,15.74
2022-10-22T03:47:02.711Z,16.55
2022-10-22T03:52:11.347Z,16.23
2022-10-22T03:57:14.261Z,16.35
2022-10-22T04:02:18.221Z,15.88
2022-10-22T04:07:21.348Z,16.20
2022-10-22T04:12:29.035Z,16.34
2022-10-22T04:17:36.974Z,16.35
2022-10-22T04:22:39.996Z,16.06
2022-10-22T04:27:42.980Z,15.98
2022-10-22T04:32:45.963Z,15.06
2022-10-22T04:37:48.705Z,15.43
2022-10-22T04:42:51.720Z,15.21
2022-10-22T04:47:54.436Z,16.45
2022-10-22T04:52:57.244Z,16.51
2022-10-22T04:58:00.343Z,15.75
2022-10-22T05:03:03.047Z,15.88
2022-10-22T05:08:06.100Z,15.58
2022-10-22T05:13:09.645Z,15.34
2022-10-22T05:18:12.728Z,16.48
2022-10-22T05:23:15.432Z,16.41
2022-10-22T05:28:18.418Z,15.42
2022-10-22T05:33:24.126Z,15.73
2022-10-22T05:38:27.528Z,16.11
2022-10-22T05:43:31.502Z,15.54
2022-10-22T05:48:34.861Z,16.63
2022-10-22T05:53:40.105Z,16.67
2022-10-22T05:58:47.832Z,16.50
2022-10-22T06:03:53.933Z,16.58
2022-10-22T06:08:57.733Z,16.67
2022-10-22T06:14:00.496Z,16.70
2022-10-22T06:19:03.413Z,16.70
2022-10-22T06:24:06.805Z,16.52
2022-10-22T06:29:09.620Z,16.53
2022-10-22T06:34:14.540Z,16.88
2022-10-22T06:39:19.663Z,16.66
2022-10-22T06:44:29.101Z,16.80
2022-10-22T06:49:32.041Z,17.03
2022-10-22T06:54:35.135Z,15.87
2022-10-22T06:59:47.708Z,16.72
2022-10-22T07:04:50.594Z,16.89
2022-10-22T07:09:54.523Z,16.57
2022-10-22T07:14:57.451Z,17.31
2022-10-22T07:20:00.432Z,17.34
2022-10-22T07:25:07.380Z,17.02
2022-10-22T07:30:11.007Z,16.43
2022-10-22T07:35:13.697Z,17.18
2022-10-22T07:40:16.810Z,17.04
2022-10-22T07:45:20.068Z,17.33
2022-10-22T07:50:23.066Z,17.40
2022-10-22T07:55:26.526Z,17.28
2022-10-22T08:00:32.688Z,17.34
2022-10-22T08:05:36.313Z,17.37
2022-10-22T08:10:39.414Z,17.26
2022-10-22T08:20:49.152Z,17.11
2022-10-22T08:26:05.063Z,17.62
2022-10-22T08:31:14.312Z,17.26
2022-10-22T08:36:19.861Z,16.29
2022-10-22T08:41:24.935Z,16.33
2022-10-22T08:47:01.691Z,16.59
2022-10-22T08:58:18.616Z,17.69
2022-10-22T09:03:49.775Z,17.94
2022-10-22T09:08:53.905Z,17.96
2022-10-22T09:13:58.366Z,18.00
2022-10-22T09:19:07.525Z,17.99
2022-10-22T09:24:21.993Z,17.94
2022-10-22T09:29:35.279Z,18.03
2022-10-22T09:34:38.474Z,17.53
2022-10-22T09:39:46.098Z,17.33
2022-10-22T09:44:59.936Z,17.94
2022-10-22T09:50:39.843Z,18.10
2022-10-22T09:55:44.156Z,18.22
2022-10-22T10:00:48.944Z,18.31
2022-10-22T10:06:01.587Z,18.23
2022-10-22T10:11:14.284Z,18.28
2022-10-22T10:16:43.826Z,18.14
2022-10-22T10:21:49.354Z,18.46
2022-10-22T10:27:24.742Z,18.48
2022-10-22T10:32:27.832Z,18.61
2022-10-22T10:37:37.929Z,17.82
2022-10-22T10:43:01.096Z,18.79
2022-10-22T10:48:14.134Z,17.67
2022-10-22T10:53:31.228Z,18.76
2022-10-22T10:58:50.002Z,18.70
2022-10-22T11:04:21.109Z,18.76
2022-10-22T11:09:31.569Z,18.68
2022-10-22T11:14:57.942Z,18.66
2022-10-22T11:20:20.899Z,18.49
2022-10-22T11:25:30.177Z,18.70
2022-10-22T11:30:39.136Z,18.63
2022-10-22T11:35:44.872Z,18.56
2022-10-22T11:41:01.867Z,17.87
2022-10-22T11:46:15.397Z,17.94
2022-10-22T11:51:31.121Z,18.03
2022-10-22T11:56:40.265Z,17.90
2022-10-22T12:01:44.306Z,17.86
2022-10-22T12:06:53.245Z,18.19
2022-10-22T12:11:56.570Z,18.24
2022-10-22T12:17:06.747Z,18.21
2022-10-22T12:22:21.890Z,18.27
2022-10-22T12:27:35.112Z,18.38
2022-10-22T12:32:43.746Z,18.10
2022-10-22T12:38:02.191Z,18.16
2022-10-22T12:43:18.556Z,18.30
2022-10-22T12:48:25.964Z,18.40
2022-10-22T12:53:32.956Z,18.51
2022-10-22T12:59:01.295Z,18.56
2022-10-22T13:04:13.369Z,17.86
2022-10-22T13:09:23.902Z,17.34
2022-10-22T13:14:33.131Z,17.06
2022-10-22T13:19:54.767Z,16.93
2022-10-22T13:25:00.653Z,16.81
2022-10-22T13:30:10.377Z,16.82
2022-10-22T13:35:18.626Z,16.73
2022-10-22T13:40:21.682Z,16.70
2022-10-22T13:45:24.511Z,16.78
2022-10-22T13:50:27.228Z,16.81
2022-10-22T13:55:31.491Z,16.87
2022-10-22T14:00:35.396Z,16.87
2022-10-22T14:05:38.109Z,16.80
2022-10-22T14:10:41.291Z,16.87
2022-10-22T14:15:47.440Z,16.67
2022-10-22T14:20:52.079Z,16.66
2022-10-22T14:25:55.244Z,16.66
2022-10-22T14:30:58.048Z,16.71
2022-10-22T14:36:10.129Z,16.32
2022-10-22T14:41:22.440Z,16.75
2022-10-22T14:46:25.333Z,16.92
2022-10-22T14:51:33.678Z,16.86
2022-10-22T14:56:38.295Z,16.83
2022-10-22T15:01:48.055Z,16.82
2022-10-22T15:06:50.993Z,16.60
2022-10-22T15:11:53.754Z,16.79
2022-10-22T15:16:56.625Z,16.70
2022-10-22T15:21:59.421Z,16.78
2022-10-22T15:27:04.137Z,16.76
2022-10-22T15:32:07.547Z,16.44
2022-10-22T15:37:21.520Z,16.75
2022-10-22T15:42:25.576Z,16.82
2022-10-22T15:47:30.524Z,16.79
2022-10-22T15:52:33.380Z,16.84
2022-10-22T15:57:36.420Z,16.91
2022-10-22T16:02:39.277Z,16.82
2022-10-22T16:07:43.948Z,16.84
2022-10-22T16:12:46.896Z,16.75
2022-10-22T16:17:49.892Z,16.22
2022-10-22T16:22:54.067Z,15.94
2022-10-22T16:27:57.213Z,15.42
2022-10-22T16:33:03.340Z,15.18
2022-10-22T16:38:07.791Z,15.25
2022-10-22T16:43:20.864Z,15.05
2022-10-22T16:48:23.710Z,14.81
2022-10-22T16:53:36.995Z,14.55
2022-10-22T16:58:44.504Z,14.63
2022-10-22T17:03:48.309Z,14.44
2022-10-22T17:08:51.460Z,14.41
2022-10-22T17:13:55.898Z,14.48
2022-10-22T17:18:59.497Z,14.51
2022-10-22T17:24:02.836Z,14.57
2022-10-22T17:29:15.828Z,14.50
2022-10-22T17:34:19.248Z,14.45
2022-10-22T17:39:21.926Z,13.83
2022-10-22T17:44:24.944Z,14.54
2022-10-22T17:49:27.827Z,14.38
2022-10-22T17:54:31.076Z,13.97
2022-10-22T17:59:34.862Z,14.31
2022-10-22T18:04:38.077Z,14.23
2022-10-22T18:09:43.658Z,14.19
2022-10-22T18:14:47.885Z,14.01
2022-10-22T18:19:50.720Z,13.37
2022-10-22T18:24:53.916Z,13.78
2022-10-22T18:29:59.076Z,14.20
2022-10-22T18:35:01.833Z,14.38
2022-10-22T18:40:14.696Z,14.22
2022-10-22T18:45:17.683Z,14.39
2022-10-22T18:50:21.930Z,14.23
2022-10-22T18:55:25.512Z,14.31
2022-10-22T19:07:29.047Z,14.42
2022-10-22T19:12:32.457Z,13.95
2022-10-22T19:17:36.442Z,14.07
2022-10-22T19:22:42.370Z,14.12
2022-10-22T19:27:45.592Z,14.02
2022-10-22T19:32:49.917Z,13.91
2022-10-22T19:37:53.155Z,13.38
2022-10-22T19:42:55.925Z,13.03
2022-10-22T19:47:58.687Z,13.07
2022-10-22T19:53:02.368Z,12.94
2022-10-22T20:05:05.877Z,13.74
2022-10-22T20:10:10.005Z,13.26
2022-10-22T20:15:14.780Z,13.06
2022-10-22T20:20:19.445Z,12.34
2022-10-22T20:25:24.818Z,13.05
2022-10-22T20:30:28.077Z,12.78
2022-10-22T20:35:31.013Z,12.41
2022-10-22T20:40:34.324Z,12.65
2022-10-22T20:45:37.504Z,12.54
2022-10-22T20:50:40.294Z,12.71
2022-10-22T20:55:43.213Z,11.94
2022-10-22T21:00:47.223Z,12.44
2022-10-22T21:05:53.969Z,12.44
2022-10-22T21:10:56.808Z,12.35
2022-10-22T21:22:59.065Z,12.54
2022-10-22T21:28:01.807Z,12.48
2022-10-22T21:33:04.623Z,12.57
2022-10-22T21:38:08.763Z,12.74
2022-10-22T21:43:31.589Z,12.56
2022-10-22T21:48:35.191Z,12.61
2022-10-22T21:53:38.456Z,11.49
2022-10-22T21:58:41.241Z,11.48
2022-10-22T22:03:48.710Z,11.62
2022-10-22T22:08:56.425Z,12.35
2022-10-22T22:14:00.034Z,12.02
2022-10-22T22:19:06.642Z,12.33
2022-10-22T22:24:11.736Z,12.10
2022-10-22T22:29:14.770Z,12.62
2022-10-22T22:41:17.169Z,12.10
2022-10-22T22:46:19.935Z,12.03
2022-10-22T22:51:23.434Z,12.40
2022-10-22T22:56:28.857Z,11.67
2022-10-22T23:01:33.342Z,12.93
2022-10-22T23:06:38.177Z,13.15
2022-10-22T23:11:41.433Z,13.32
2022-10-22T23:16:50.969Z,13.23
2022-10-22T23:22:19.040Z,13.31
2022-10-22T23:27:22.880Z,12.77
2022-10-22T23:32:25.573Z,13.81
2022-10-22T23:37:28.366Z,13.87
2022-10-22T23:42:31.877Z,13.78
2022-10-22T23:47:35.641Z,13.45
2022-10-22T23:59:32.287Z,13.81
